createdAt,value
2023-04-12T00:01:10.948Z,1.60
2023-04-12T00:03:41.397Z,2.10
2023-04-12T00:06:10.401Z,2.00
2023-04-12T00:08:38.881Z,1.80
2023-04-12T00:11:07.681Z,1.93
2023-04-12T00:13:35.654Z,1.70
2023-04-12T00:16:03.992Z,1.90
2023-04-12T00:18:32.369Z,1.60
2023-04-12T00:21:01.912Z,1.40
2023-04-12T00:23:30.037Z,1.80
2023-04-12T00:25:58.098Z,1.80
2023-04-12T00:28:26.195Z,1.70
2023-04-12T00:30:54.580Z,1.80
2023-04-12T00:33:23.689Z,1.40
2023-04-12T00:35:52.290Z,1.30
2023-04-12T00:38:22.289Z,1.53
2023-04-12T00:40:50.983Z,1.50
2023-04-12T00:43:19.688Z,1.60
2023-04-12T00:45:48.575Z,1.57
2023-04-12T00:48:17.546Z,1.50
2023-04-12T00:50:47.834Z,1.40
2023-04-12T00:53:17.844Z,1.40
2023-04-12T00:55:49.411Z,1.40
2023-04-12T00:58:18.753Z,1.30
2023-04-12T01:00:50.939Z,1.53
2023-04-12T01:03:23.306Z,1.53
2023-04-12T01:06:01.610Z,1.50
2023-04-12T01:08:40.618Z,1.80
2023-04-12T01:11:24.877Z,1.47
2023-04-12T01:14:00.290Z,1.50
2023-04-12T01:16:33.486Z,1.30
2023-04-12T01:19:07.283Z,1.30
2023-04-12T01:21:46.645Z,1.40
2023-04-12T01:24:29.155Z,1.47
2023-04-12T01:27:02.744Z,1.47
2023-04-12T01:29:33.563Z,1.30
2023-04-12T01:32:05.075Z,1.80
2023-04-12T01:34:36.956Z,1.57
2023-04-12T01:37:06.495Z,1.50
2023-04-12T01:39:36.126Z,1.50
2023-04-12T01:42:04.497Z,1.63
2023-04-12T01:44:34.718Z,1.87
2023-04-12T01:47:03.283Z,1.50
2023-04-12T01:49:37.381Z,1.40
2023-04-12T01:52:11.113Z,1.23
2023-04-12T01:54:43.143Z,1.57
2023-04-12T01:57:12.885Z,1.43
2023-04-12T01:59:44.845Z,1.60
2023-04-12T02:02:14.767Z,1.37
2023-04-12T02:04:44.890Z,1.80
2023-04-12T02:07:14.707Z,1.73
2023-04-12T02:09:43.006Z,1.50
2023-04-12T02:12:11.601Z,1.50
2023-04-12T02:14:41.357Z,1.43
2023-04-12T02:17:09.925Z,1.37
2023-04-12T02:19:38.475Z,1.50
2023-04-12T02:22:08.358Z,1.40
2023-04-12T02:24:36.738Z,1.70
2023-04-12T02:27:06.091Z,1.33
2023-04-12T02:29:34.680Z,1.33
2023-04-12T02:32:05.824Z,1.70
2023-04-12T02:34:36.952Z,1.40
2023-04-12T02:37:05.506Z,1.80
2023-04-12T02:39:34.882Z,1.40
2023-04-12T02:42:03.088Z,1.33
2023-04-12T02:44:32.336Z,1.30
2023-04-12T02:47:01.003Z,1.70
2023-04-12T02:49:31.164Z,1.53
2023-04-12T02:52:00.712Z,1.60
2023-04-12T02:54:29.583Z,1.87
2023-04-12T02:56:58.007Z,1.87
2023-04-12T02:59:26.447Z,1.50
2023-04-12T03:01:55.160Z,1.73
2023-04-12T03:04:30.773Z,1.33
2023-04-12T03:07:01.544Z,1.43
2023-04-12T03:09:30.049Z,1.30
2023-04-12T03:11:58.587Z,1.53
2023-04-12T03:14:26.977Z,1.63
2023-04-12T03:16:55.463Z,1.77
2023-04-12T03:19:23.896Z,1.53
2023-04-12T03:21:52.640Z,1.67
2023-04-12T03:24:22.556Z,1.27
2023-04-12T03:26:52.318Z,1.30
2023-04-12T03:29:20.658Z,1.60
2023-04-12T03:31:48.968Z,1.60
2023-04-12T03:34:17.432Z,1.30
2023-04-12T03:36:46.211Z,1.47
2023-04-12T03:39:14.748Z,1.30
2023-04-12T03:41:45.108Z,1.40
2023-04-12T03:44:14.323Z,2.13
2023-04-12T03:46:43.777Z,1.70
2023-04-12T03:49:12.806Z,1.23
2023-04-12T03:51:43.151Z,1.50
2023-04-12T03:54:12.326Z,1.80
2023-04-12T03:56:40.900Z,1.37
2023-04-12T03:59:11.203Z,1.10
2023-04-12T04:01:40.756Z,1.43
2023-04-12T04:04:09.901Z,1.90
2023-04-12T04:06:38.966Z,1.53
2023-04-12T04:09:08.251Z,1.43
2023-04-12T04:11:38.524Z,1.60
2023-04-12T04:14:07.984Z,1.53
2023-04-12T04:16:39.346Z,1.67
2023-04-12T04:19:08.203Z,1.70
2023-04-12T04:21:36.986Z,2.10
2023-04-12T04:24:07.168Z,1.77
2023-04-12T04:34:34.772Z,1.50
2023-04-12T04:37:02.994Z,1.77
2023-04-12T04:39:31.102Z,1.40
2023-04-12T04:41:59.938Z,1.90
2023-04-12T04:44:28.179Z,1.60
2023-04-12T04:46:56.681Z,1.70
2023-04-12T04:49:24.853Z,1.60
2023-04-12T04:51:54.249Z,1.43
2023-04-12T04:54:22.322Z,1.90
2023-04-12T04:56:54.730Z,1.60
2023-04-12T04:59:23.839Z,1.87
2023-04-12T05:01:53.469Z,1.63
2023-04-12T05:04:21.662Z,1.50
2023-04-12T05:06:49.985Z,1.80
2023-04-12T05:09:19.891Z,1.63
2023-04-12T05:11:47.934Z,1.93
2023-04-12T05:14:16.077Z,1.50
2023-04-12T05:16:44.301Z,1.73
2023-04-12T05:19:12.579Z,1.73
2023-04-12T05:21:42.829Z,1.70
2023-04-12T05:24:11.654Z,1.90
2023-04-12T05:26:41.281Z,2.07
2023-04-12T05:29:12.475Z,1.60
2023-04-12T05:34:44.145Z,1.70
2023-04-12T05:37:12.618Z,1.90
2023-04-12T05:39:40.940Z,1.87
2023-04-12T05:42:11.016Z,1.67
2023-04-12T05:44:41.002Z,1.77
2023-04-12T05:47:09.285Z,1.70
2023-04-12T05:49:37.685Z,2.30
2023-04-12T05:52:08.772Z,1.70
2023-04-12T05:54:38.239Z,1.73
2023-04-12T05:57:13.119Z,1.73
2023-04-12T05:59:53.892Z,2.07
2023-04-12T06:02:26.241Z,1.80
2023-04-12T06:05:16.873Z,2.10
2023-04-12T06:07:47.306Z,1.80
2023-04-12T06:10:17.755Z,1.90
2023-04-12T06:12:46.573Z,1.90
2023-04-12T06:15:20.105Z,2.10
2023-04-12T06:17:48.697Z,2.17
2023-04-12T06:20:17.283Z,2.07
2023-04-12T06:22:48.944Z,2.00
2023-04-12T06:25:19.359Z,2.40
2023-04-12T06:27:49.719Z,2.07
2023-04-12T06:30:21.283Z,2.07
2023-04-12T06:32:49.537Z,1.77
2023-04-12T06:35:18.332Z,2.10
2023-04-12T06:37:46.636Z,1.97
2023-04-12T06:40:14.799Z,1.63
2023-04-12T06:42:43.016Z,1.87
2023-04-12T06:45:12.003Z,1.60
2023-04-12T06:47:42.038Z,2.10
2023-04-12T06:50:11.085Z,1.63
2023-04-12T06:52:39.260Z,2.00
2023-04-12T06:55:08.640Z,1.83
2023-04-12T06:57:37.069Z,1.90
2023-04-12T07:00:06.218Z,1.83
2023-04-12T07:02:34.398Z,1.63
2023-04-12T07:05:07.621Z,1.93
2023-04-12T07:07:35.999Z,1.57
2023-04-12T07:10:04.766Z,2.00
2023-04-12T07:12:33.165Z,1.63
2023-04-12T07:15:01.648Z,1.73
2023-04-12T07:17:30.279Z,1.90
2023-04-12T07:20:01.168Z,2.20
2023-04-12T07:26:02.235Z,2.00
2023-04-12T07:28:30.542Z,1.93
2023-04-12T07:30:59.417Z,1.80
2023-04-12T07:33:27.909Z,2.00
2023-04-12T07:35:56.564Z,2.00
2023-04-12T07:38:24.658Z,2.00
2023-04-12T07:40:53.052Z,2.10
2023-04-12T07:43:23.879Z,2.07
2023-04-12T07:45:52.974Z,1.80
2023-04-12T07:48:21.276Z,1.73
2023-04-12T07:50:49.426Z,1.90
2023-04-12T07:53:33.146Z,1.90
2023-04-12T08:00:09.003Z,1.77
2023-04-12T08:03:31.536Z,1.90
2023-04-12T08:06:00.582Z,1.87
2023-04-12T08:08:58.542Z,2.07
2023-04-12T08:15:24.974Z,1.67
2023-04-12T08:17:53.303Z,2.10
2023-04-12T08:20:21.858Z,1.93
2023-04-12T08:22:52.652Z,1.80
2023-04-12T08:25:24.582Z,1.83
2023-04-12T08:28:06.494Z,2.10
2023-04-12T08:30:36.996Z,1.80
2023-04-12T08:33:14.974Z,1.80
2023-04-12T08:35:57.471Z,2.17
2023-04-12T08:38:52.834Z,1.80
2023-04-12T08:41:30.633Z,2.00
2023-04-12T08:44:00.589Z,2.00
2023-04-12T08:46:30.679Z,2.13
2023-04-12T08:48:58.833Z,2.53
2023-04-12T08:51:28.075Z,1.83
2023-04-12T08:53:56.656Z,1.87
2023-04-12T09:11:41.258Z,2.20
2023-04-12T09:14:30.793Z,2.37
2023-04-12T09:16:59.116Z,2.13
2023-04-12T09:19:34.481Z,1.80
2023-04-12T09:22:03.753Z,1.97
2023-04-12T09:24:32.152Z,1.73
2023-04-12T09:27:06.300Z,1.90
2023-04-12T09:29:35.320Z,1.77
2023-04-12T09:32:06.772Z,1.60
2023-04-12T09:34:36.153Z,1.73
2023-04-12T09:37:14.224Z,1.87
2023-04-12T09:39:42.606Z,1.93
2023-04-12T09:42:31.752Z,2.07
2023-04-12T09:45:02.893Z,1.80
2023-04-12T09:47:40.030Z,1.93
2023-04-12T09:50:10.221Z,1.60
2023-04-12T09:52:40.480Z,1.77
2023-04-12T09:55:12.261Z,1.87
2023-04-12T09:57:45.058Z,1.60
2023-04-12T10:00:18.148Z,1.40
2023-04-12T10:02:51.003Z,1.53
2023-04-12T10:05:26.855Z,1.87
2023-04-12T10:10:32.354Z,1.93
2023-04-12T10:13:02.524Z,1.63
2023-04-12T10:15:31.779Z,1.77
2023-04-12T10:18:03.367Z,1.60
2023-04-12T10:20:32.265Z,1.30
2023-04-12T10:23:01.035Z,1.20
2023-04-12T10:25:36.114Z,1.30
2023-04-12T10:28:19.851Z,1.57
2023-04-12T10:30:51.192Z,1.17
2023-04-12T10:33:20.658Z,1.30
2023-04-12T10:35:54.976Z,1.43
2023-04-12T10:38:26.906Z,1.33
2023-04-12T10:41:23.231Z,1.50
2023-04-12T10:43:53.585Z,1.30
2023-04-12T10:46:56.331Z,1.53
2023-04-12T10:49:42.935Z,1.30
2023-04-12T10:52:35.825Z,1.30
2023-04-12T10:55:29.955Z,1.20
2023-04-12T10:58:15.120Z,1.87
2023-04-12T11:01:12.774Z,1.30
2023-04-12T11:04:15.984Z,0.97
2023-04-12T11:06:59.618Z,1.00
2023-04-12T11:09:30.424Z,0.77
2023-04-12T11:12:25.676Z,1.00
2023-04-12T11:15:13.888Z,0.93
2023-04-12T11:17:44.955Z,1.10
2023-04-12T11:20:25.580Z,1.20
2023-04-12T11:22:57.475Z,1.27
2023-04-12T11:25:26.024Z,1.50
2023-04-12T11:27:55.225Z,1.10
2023-04-12T11:30:23.676Z,1.60
2023-04-12T11:32:53.576Z,1.30
2023-04-12T11:35:27.383Z,1.33
2023-04-12T11:37:57.522Z,1.33
2023-04-12T11:40:28.846Z,1.13
2023-04-12T11:42:58.457Z,1.20
2023-04-12T11:45:27.726Z,1.23
2023-04-12T11:47:58.421Z,1.43
2023-04-12T11:50:31.309Z,1.50
2023-04-12T11:53:11.797Z,1.50
2023-04-12T11:55:40.356Z,1.50
2023-04-12T11:58:23.930Z,1.10
2023-04-12T12:00:53.995Z,1.10
2023-04-12T12:03:24.353Z,1.23
2023-04-12T12:05:53.664Z,1.43
2023-04-12T12:08:22.323Z,1.20
2023-04-12T12:11:06.529Z,1.30
2023-04-12T12:13:46.300Z,1.10
2023-04-12T12:16:14.576Z,1.70
2023-04-12T12:18:44.628Z,1.10
2023-04-12T12:21:14.875Z,1.57
2023-04-12T12:23:45.336Z,1.20
2023-04-12T12:26:22.542Z,1.00
2023-04-12T12:28:52.677Z,1.50
2023-04-12T12:31:22.601Z,4.23
2023-04-12T12:33:56.873Z,1.47
2023-04-12T12:36:32.908Z,1.40
2023-04-12T12:39:10.719Z,2.10
2023-04-12T12:41:39.969Z,1.77
2023-04-12T12:44:08.991Z,1.47
2023-04-12T12:46:52.077Z,1.50
2023-04-12T12:49:23.611Z,2.47
2023-04-12T12:51:52.276Z,1.57
2023-04-12T12:54:36.817Z,1.17
2023-04-12T12:57:10.175Z,1.20
2023-04-12T12:59:39.002Z,1.10
2023-04-12T13:02:07.696Z,1.20
2023-04-12T13:04:38.269Z,1.50
2023-04-12T13:07:06.985Z,1.40
2023-04-12T13:09:35.500Z,1.30
2023-04-12T13:12:04.268Z,1.40
2023-04-12T13:14:32.563Z,1.20
2023-04-12T13:17:01.835Z,1.50
2023-04-12T13:19:30.162Z,1.30
2023-04-12T13:22:00.290Z,1.20
2023-04-12T13:24:28.481Z,1.50
2023-04-12T13:26:58.368Z,1.13
2023-04-12T13:29:26.640Z,1.40
2023-04-12T13:31:54.910Z,1.37
2023-04-12T13:34:23.375Z,1.30
2023-04-12T13:36:51.750Z,1.27
2023-04-12T13:39:22.537Z,1.57
2023-04-12T13:41:51.201Z,1.27
2023-04-12T13:44:28.604Z,1.73
2023-04-12T13:46:56.879Z,1.00
2023-04-12T13:49:24.916Z,1.67
2023-04-12T13:51:53.131Z,1.30
2023-04-12T13:54:22.607Z,1.43
2023-04-12T13:56:50.684Z,1.20
2023-04-12T13:59:18.805Z,1.33
2023-04-12T14:01:46.945Z,1.30
2023-04-12T14:04:15.837Z,1.10
2023-04-12T14:06:45.534Z,1.30
2023-04-12T14:09:25.937Z,1.13
2023-04-12T14:11:56.017Z,0.90
2023-04-12T14:14:24.545Z,1.03
2023-04-12T14:16:54.784Z,1.03
2023-04-12T14:19:22.968Z,1.40
2023-04-12T14:21:51.898Z,1.27
2023-04-12T14:24:21.037Z,1.20
2023-04-12T14:26:51.134Z,1.30
2023-04-12T14:29:19.488Z,0.90
2023-04-12T14:31:47.590Z,1.20
2023-04-12T14:34:15.626Z,1.50
2023-04-12T14:36:43.857Z,1.10
2023-04-12T14:39:13.916Z,1.13
2023-04-12T14:41:43.238Z,1.00
2023-04-12T14:44:12.737Z,1.53
2023-04-12T14:49:51.883Z,1.20
2023-04-12T14:52:20.196Z,1.50
2023-04-12T14:54:48.321Z,1.20
2023-04-12T14:57:16.540Z,1.10
2023-04-12T14:59:46.404Z,1.20
2023-04-12T15:02:14.954Z,1.20
2023-04-12T15:04:45.396Z,1.20
2023-04-12T15:07:14.776Z,1.20
2023-04-12T15:12:29.202Z,1.07
2023-04-12T15:14:58.636Z,1.10
2023-04-12T15:17:26.839Z,1.37
2023-04-12T15:19:55.159Z,1.27
2023-04-12T15:22:26.564Z,1.17
2023-04-12T15:24:55.094Z,1.00
2023-04-12T15:27:23.416Z,2.37
2023-04-12T15:29:51.534Z,1.00
2023-04-12T15:32:33.126Z,0.87
2023-04-12T15:35:11.980Z,1.00
2023-04-12T15:37:47.192Z,1.00
2023-04-12T15:40:16.149Z,1.10
2023-04-12T15:42:48.001Z,1.10
2023-04-12T15:45:16.728Z,1.33
2023-04-12T15:47:55.727Z,1.10
2023-04-12T15:50:26.228Z,1.40
2023-04-12T15:52:55.422Z,1.50
2023-04-12T15:55:23.739Z,1.23
2023-04-12T15:57:54.693Z,1.20
2023-04-12T16:00:24.330Z,1.23
2023-04-12T16:02:56.654Z,1.30
2023-04-12T16:05:29.641Z,1.10
2023-04-12T16:07:58.102Z,1.33
2023-04-12T16:10:26.952Z,0.97
2023-04-12T16:12:56.548Z,1.40
2023-04-12T16:15:27.942Z,1.13
2023-04-12T16:17:58.774Z,1.10
2023-04-12T16:20:28.649Z,1.33
2023-04-12T16:22:56.874Z,1.13
2023-04-12T16:25:27.264Z,1.17
2023-04-12T16:27:56.191Z,1.40
2023-04-12T16:30:31.615Z,1.30
2023-04-12T16:33:09.269Z,1.17
2023-04-12T16:35:39.083Z,1.43
2023-04-12T16:38:08.436Z,1.30
2023-04-12T16:40:36.594Z,1.40
2023-04-12T16:43:05.744Z,1.13
2023-04-12T16:45:33.822Z,0.97
2023-04-12T16:48:03.384Z,1.10
2023-04-12T16:50:34.912Z,1.00
2023-04-12T16:53:03.936Z,1.10
2023-04-12T16:55:32.268Z,2.43
2023-04-12T16:58:00.611Z,1.30
2023-04-12T17:00:30.096Z,1.40
2023-04-12T17:02:58.205Z,1.20
2023-04-12T17:05:27.883Z,1.40
2023-04-12T17:07:57.539Z,2.03
2023-04-12T17:10:26.905Z,1.20
2023-04-12T17:12:56.627Z,1.47
2023-04-12T17:15:28.358Z,1.43
2023-04-12T17:18:02.513Z,1.83
2023-04-12T17:21:09.328Z,1.07
2023-04-12T17:24:01.628Z,1.37
2023-04-12T17:26:40.966Z,1.17
2023-04-12T17:29:10.199Z,1.50
2023-04-12T17:31:39.495Z,1.37
2023-04-12T17:34:08.340Z,1.40
2023-04-12T17:36:38.249Z,1.20
2023-04-12T17:39:06.432Z,1.17
2023-04-12T17:41:34.597Z,1.73
2023-04-12T17:44:02.758Z,1.80
2023-04-12T17:46:31.105Z,1.13
2023-04-12T17:49:00.015Z,1.10
2023-04-12T17:51:29.311Z,1.30
2023-04-12T17:54:01.070Z,1.50
2023-04-12T17:56:29.850Z,1.40
2023-04-12T18:01:54.512Z,1.23
2023-04-12T18:04:23.265Z,1.40
2023-04-12T18:07:04.385Z,1.10
2023-04-12T18:09:41.034Z,0.90
2023-04-12T18:12:18.520Z,1.30
2023-04-12T18:15:07.092Z,1.30
2023-04-12T18:17:39.350Z,1.00
2023-04-12T18:20:11.713Z,1.27
2023-04-12T18:22:43.592Z,1.10
2023-04-12T18:25:19.301Z,1.50
2023-04-12T18:27:49.360Z,1.40
2023-04-12T18:30:19.474Z,1.50
2023-04-12T18:32:48.065Z,1.40
2023-04-12T18:35:21.232Z,1.30
2023-04-12T18:37:51.656Z,1.30
2023-04-12T18:40:26.208Z,1.30
2023-04-12T18:43:12.797Z,1.13
2023-04-12T18:45:44.849Z,1.20
2023-04-12T18:48:24.814Z,1.20
2023-04-12T18:50:54.552Z,1.33
2023-04-12T18:56:42.393Z,1.00
2023-04-12T18:59:56.563Z,1.30
2023-04-12T19:02:25.041Z,1.30
2023-04-12T19:04:53.284Z,1.17
2023-04-12T19:07:21.448Z,1.70
2023-04-12T19:09:49.748Z,1.40
2023-04-12T19:12:21.358Z,1.07
2023-04-12T19:14:49.912Z,1.40
2023-04-12T19:17:22.552Z,1.70
2023-04-12T19:19:50.836Z,1.50
2023-04-12T19:22:19.798Z,1.30
2023-04-12T19:24:50.343Z,1.37
2023-04-12T19:27:22.252Z,1.10
2023-04-12T19:29:51.478Z,1.20
2023-04-12T19:32:20.003Z,0.97
2023-04-12T19:34:48.500Z,1.33
2023-04-12T19:37:17.171Z,1.20
2023-04-12T19:39:47.997Z,1.30
2023-04-12T19:42:35.924Z,1.33
2023-04-12T19:45:04.592Z,0.87
2023-04-12T19:47:44.907Z,1.10
2023-04-12T19:50:16.497Z,1.33
2023-04-12T19:52:45.928Z,1.10
2023-04-12T19:55:17.772Z,1.17
2023-04-12T19:57:47.502Z,1.10
2023-04-12T20:00:19.805Z,1.10
2023-04-12T20:02:49.053Z,1.20
2023-04-12T20:05:18.248Z,0.97
2023-04-12T20:07:46.644Z,1.13
2023-04-12T20:10:15.644Z,1.10
2023-04-12T20:12:44.449Z,1.10
2023-04-12T20:15:15.273Z,1.00
2023-04-12T20:17:44.760Z,1.00
2023-04-12T20:20:14.177Z,1.33
2023-04-12T20:22:43.562Z,1.10
2023-04-12T20:25:14.198Z,0.93
2023-04-12T20:27:43.877Z,0.80
2023-04-12T20:30:17.654Z,1.03
2023-04-12T20:32:46.138Z,0.90
2023-04-12T20:35:15.371Z,1.13
2023-04-12T20:37:43.936Z,1.23
2023-04-12T20:40:13.005Z,1.10
2023-04-12T20:42:42.456Z,1.30
2023-04-12T20:45:11.651Z,1.33
2023-04-12T20:47:43.429Z,1.27
2023-04-12T20:50:12.485Z,1.57
2023-04-12T20:52:40.798Z,1.87
2023-04-12T20:55:11.047Z,1.73
2023-04-12T20:57:40.321Z,1.70
2023-04-12T21:00:17.296Z,1.90
2023-04-12T21:02:48.924Z,1.37
2023-04-12T21:05:17.337Z,1.60
2023-04-12T21:07:46.780Z,1.30
2023-04-12T21:10:16.434Z,1.10
2023-04-12T21:12:45.044Z,2.13
2023-04-12T21:15:14.169Z,1.50
2023-04-12T21:17:42.893Z,1.80
2023-04-12T21:20:14.567Z,1.70
2023-04-12T21:22:44.216Z,1.27
2023-04-12T21:25:15.103Z,0.90
2023-04-12T21:27:43.766Z,0.97
2023-04-12T21:30:12.945Z,1.13
2023-04-12T21:41:32.043Z,1.03
2023-04-12T21:44:00.120Z,0.87
2023-04-12T21:46:28.806Z,1.13
2023-04-12T21:48:57.284Z,1.10
2023-04-12T21:51:28.262Z,0.87
2023-04-12T21:53:56.298Z,1.03
2023-04-12T21:56:24.533Z,0.90
2023-04-12T21:58:52.740Z,0.97
2023-04-12T22:01:20.893Z,1.40
2023-04-12T22:03:49.261Z,1.10
2023-04-12T22:06:19.599Z,0.77
2023-04-12T22:08:49.769Z,1.00
2023-04-12T22:11:18.403Z,0.70
2023-04-12T22:13:46.918Z,0.97
2023-04-12T22:16:15.873Z,0.80
2023-04-12T22:18:45.634Z,0.90
2023-04-12T22:21:13.854Z,0.73
2023-04-12T22:23:41.994Z,1.10
2023-04-12T22:26:13.002Z,0.73
2023-04-12T22:28:42.873Z,1.53
2023-04-12T22:31:16.486Z,0.80
2023-04-12T22:33:47.419Z,0.80
2023-04-12T22:36:15.546Z,0.97
2023-04-12T22:38:43.729Z,0.90
2023-04-12T22:41:16.777Z,0.87
2023-04-12T22:43:47.731Z,0.90
2023-04-12T22:46:17.334Z,0.77
2023-04-12T22:48:46.068Z,0.80
2023-04-12T22:51:14.231Z,0.80
2023-04-12T22:53:43.645Z,1.10
2023-04-12T22:56:13.445Z,0.90
2023-04-12T22:58:43.107Z,0.80
2023-04-12T23:01:11.380Z,1.13
2023-04-12T23:03:41.631Z,0.70
2023-04-12T23:06:12.763Z,0.70
2023-04-12T23:08:40.815Z,0.77
2023-04-12T23:11:09.067Z,0.70
2023-04-12T23:13:38.871Z,0.90
2023-04-12T23:16:09.263Z,0.90
2023-04-12T23:18:37.818Z,0.83
2023-04-12T23:21:06.422Z,0.63
2023-04-12T23:23:34.535Z,0.70
2023-04-12T23:26:02.726Z,0.90
2023-04-12T23:28:30.837Z,1.00
2023-04-12T23:31:01.956Z,0.90
2023-04-12T23:33:30.172Z,0.80
2023-04-12T23:35:58.832Z,0.60
2023-04-12T23:38:32.147Z,0.70
2023-04-12T23:41:02.297Z,0.80
2023-04-12T23:43:32.348Z,0.70
2023-04-12T23:46:02.319Z,0.77
2023-04-12T23:48:31.448Z,0.80
2023-04-12T23:51:20.066Z,0.60
2023-04-12T23:53:48.065Z,0.80
2023-04-12T23:56:16.126Z,0.80
2023-04-12T23:58:44.133Z,0.97
